Pagrindinis puslapis
METAR-TAF:

METAR-TAF

Oro uostai :

Solnokas, Vengrija

platuma: 47-07N, ilguma: 020-14E, Aukštis: 89 m

Dabartinis oras

Ataskaita buvo paskelbta 27 minutes, ne 18:15 UTC
Vėjas 4 kt iš Vakarų/Šiaurės Vakarų
Temperatūra 12°C
Drėgmė 54%
Slėgis 1024 hPa
Matomumas 10 km arba daugiau
nėra debesų žemiau 1500 m ir nėra kamuolinių lietaus debesų

METAR: LHSN 191815Z 30004KT CAVOK 12/03 Q1024 NOSIG RMK BLU

Laikas: 20:42 (18:42 UTC)

Prognozė

Ataskaita buvo paskelbta 1 valandą ir 27 minutes, ne 17:15 UTC
Prognozė galioja nuo 19 metu 18 UTC su 20 metu 03 UTC
Vėjas 4 kt iš Šiaurės/Šiaurės Vakarų
Matomumas 10 km arba daugiau
nėra debesų žemiau 1500 m ir nėra kamuolinių lietaus debesų

TAF: LHSN 191715Z 1918/2003 34004KT CAVOK

Orai ataskaitas ir orų prognozės (METAR, TAF).

turimą stotys yra geltonos ir raudonos taškus žemėlapyje.

Perkelti pele per norėdami pamatyti stoties vardą.

Tada spustelėkite, norėdami matyti oro stebėjimo ir prognozės.

Norėdami pakeisti žemėlapį: spustelėkite ant žalios mygtukų su juodo kryžiaus žemyn,; žalią mygtuką su brūkšneliu, jei norite nutolinti; arba žalių rodyklių gretimoms žemėlapius.


METAR-TAF: